createdAt,value
2018-02-04T00:01:11.212Z,10.90
2018-02-04T00:03:38.805Z,11.97
2018-02-04T00:06:06.373Z,10.67
2018-02-04T00:08:33.960Z,8.50
2018-02-04T00:11:01.529Z,9.07
2018-02-04T00:13:29.125Z,8.40
2018-02-04T00:15:56.684Z,7.90
2018-02-04T00:18:24.264Z,8.37
2018-02-04T00:20:51.825Z,8.80
2018-02-04T00:23:19.404Z,9.70
2018-02-04T00:25:46.968Z,9.73
2018-02-04T00:28:14.558Z,9.80
2018-02-04T00:30:42.116Z,9.90
2018-02-04T00:33:09.733Z,9.63
2018-02-04T00:35:37.307Z,9.10
2018-02-04T00:38:04.905Z,9.40
2018-02-04T00:40:32.464Z,9.50
2018-02-04T00:43:00.052Z,10.20
2018-02-04T00:45:27.616Z,9.90
2018-02-04T00:47:55.193Z,9.80
2018-02-04T00:50:22.821Z,8.60
2018-02-04T00:52:50.378Z,9.07
2018-02-04T00:55:17.964Z,7.50
2018-02-04T00:57:45.524Z,8.90
2018-02-04T01:00:13.109Z,7.30
2018-02-04T01:02:40.672Z,8.10
2018-02-04T01:05:09.020Z,9.00
2018-02-04T01:07:36.591Z,8.80
2018-02-04T01:10:04.181Z,10.13
2018-02-04T01:12:31.745Z,7.23
2018-02-04T01:14:59.327Z,8.20
2018-02-04T01:17:26.894Z,8.90
2018-02-04T01:19:54.481Z,8.63
2018-02-04T01:22:22.044Z,6.83
2018-02-04T01:24:49.632Z,9.03
2018-02-04T01:27:17.960Z,7.60
2018-02-04T01:29:45.551Z,8.53
2018-02-04T01:32:13.132Z,7.93
2018-02-04T01:34:40.713Z,7.80
2018-02-04T01:37:08.275Z,8.00
2018-02-04T01:39:35.899Z,6.73
2018-02-04T01:42:03.448Z,7.57
2018-02-04T01:44:31.036Z,8.20
2018-02-04T01:46:58.600Z,7.80
2018-02-04T01:49:26.183Z,7.67
2018-02-04T01:51:53.747Z,8.40
2018-02-04T01:54:21.338Z,9.87
2018-02-04T01:56:48.904Z,11.97
2018-02-04T01:59:16.495Z,9.10
2018-02-04T02:01:44.064Z,9.87
2018-02-04T02:04:11.648Z,10.50
2018-02-04T02:06:39.238Z,17.00
2018-02-04T02:09:06.807Z,9.40
2018-02-04T02:11:34.394Z,8.37
2018-02-04T02:14:01.952Z,7.53
2018-02-04T02:16:29.533Z,5.97
2018-02-04T02:18:57.101Z,6.20
2018-02-04T02:21:24.689Z,5.57
2018-02-04T02:23:52.252Z,7.57
2018-02-04T02:26:20.597Z,9.93
2018-02-04T02:28:48.151Z,7.47
2018-02-04T02:31:15.737Z,8.80
2018-02-04T02:33:43.293Z,6.33
2018-02-04T02:36:10.882Z,5.63
2018-02-04T02:38:38.453Z,12.43
2018-02-04T02:41:06.042Z,7.93
2018-02-04T02:43:33.605Z,7.10
2018-02-04T02:46:01.196Z,6.93
2018-02-04T02:48:29.528Z,7.10
2018-02-04T02:50:57.113Z,6.10
2018-02-04T02:53:24.689Z,5.57
2018-02-04T02:55:52.284Z,5.97
2018-02-04T02:58:19.850Z,6.27
2018-02-04T03:00:47.434Z,5.97
2018-02-04T03:03:14.994Z,5.60
2018-02-04T03:05:42.579Z,5.00
2018-02-04T03:08:10.135Z,9.17
2018-02-04T03:10:37.721Z,6.53
2018-02-04T03:13:05.286Z,5.70
2018-02-04T03:15:32.872Z,5.53
2018-02-04T03:18:00.433Z,5.53
2018-02-04T03:20:27.986Z,5.13
2018-02-04T03:22:55.575Z,5.27
2018-02-04T03:25:23.137Z,4.60
2018-02-04T03:27:50.720Z,5.43
2018-02-04T03:30:19.040Z,4.40
2018-02-04T03:32:46.622Z,4.70
2018-02-04T03:35:14.189Z,4.37
2018-02-04T03:37:41.776Z,4.90
2018-02-04T03:40:10.097Z,5.63
2018-02-04T03:42:37.699Z,6.23
2018-02-04T03:45:05.257Z,5.00
2018-02-04T03:47:32.835Z,6.40
2018-02-04T03:50:01.157Z,6.60
2018-02-04T03:52:28.736Z,5.47
2018-02-04T03:54:56.283Z,5.20
2018-02-04T03:57:23.889Z,4.90
2018-02-04T03:59:52.221Z,4.73
2018-02-04T04:02:19.809Z,5.00
2018-02-04T04:04:47.377Z,7.23
2018-02-04T04:07:14.965Z,5.83
2018-02-04T04:09:42.533Z,4.93
2018-02-04T04:12:10.116Z,3.87
2018-02-04T04:14:37.676Z,3.80
2018-02-04T04:17:05.260Z,3.57
2018-02-04T04:19:32.826Z,4.10
2018-02-04T04:22:00.415Z,4.70
2018-02-04T04:24:27.976Z,4.37
2018-02-04T04:26:55.560Z,4.97
2018-02-04T04:29:23.126Z,4.90
2018-02-04T04:31:50.717Z,5.07
2018-02-04T04:34:18.273Z,6.57
2018-02-04T04:36:45.837Z,3.70
2018-02-04T04:39:13.416Z,4.37
2018-02-04T04:41:41.748Z,6.57
2018-02-04T04:44:09.335Z,7.30
2018-02-04T04:46:37.660Z,7.50
2018-02-04T04:49:05.240Z,4.57
2018-02-04T04:51:32.809Z,4.10
2018-02-04T04:54:00.384Z,4.57
2018-02-04T04:56:27.940Z,5.80
2018-02-04T04:58:55.528Z,4.30
2018-02-04T05:01:23.080Z,4.33
2018-02-04T05:03:50.664Z,4.93
2018-02-04T05:06:18.215Z,4.13
2018-02-04T05:08:45.804Z,3.77
2018-02-04T05:11:13.363Z,4.30
2018-02-04T05:13:40.943Z,3.73
2018-02-04T05:16:08.505Z,7.70
2018-02-04T05:18:36.079Z,4.30
2018-02-04T05:21:04.405Z,5.53
2018-02-04T05:23:31.982Z,4.67
2018-02-04T05:25:59.544Z,5.53
2018-02-04T05:28:27.128Z,3.83
2018-02-04T05:30:54.685Z,3.70
2018-02-04T05:33:22.281Z,4.17
2018-02-04T05:35:49.835Z,3.10
2018-02-04T05:38:17.412Z,3.07
2018-02-04T05:40:44.972Z,2.73
2018-02-04T05:43:12.553Z,3.00
2018-02-04T05:45:40.115Z,4.13
2018-02-04T05:48:09.354Z,4.10
2018-02-04T05:50:36.913Z,3.60
2018-02-04T05:53:04.492Z,3.10
2018-02-04T05:55:32.057Z,4.00
2018-02-04T05:58:00.410Z,3.37
2018-02-04T06:00:27.968Z,3.43
2018-02-04T06:02:55.556Z,3.77
2018-02-04T06:05:23.116Z,3.20
2018-02-04T06:07:50.672Z,3.90
2018-02-04T06:10:18.247Z,3.73
2018-02-04T06:12:45.817Z,4.33
2018-02-04T06:15:13.397Z,3.60
2018-02-04T06:17:40.965Z,3.50
2018-02-04T06:20:09.321Z,4.07
2018-02-04T06:22:36.901Z,3.23
2018-02-04T06:25:04.490Z,4.10
2018-02-04T06:27:32.078Z,3.80
2018-02-04T06:29:59.653Z,3.20
2018-02-04T06:32:27.213Z,4.10
2018-02-04T06:34:54.833Z,3.70
2018-02-04T06:37:22.388Z,4.47
2018-02-04T06:39:49.973Z,3.80
2018-02-04T06:42:17.527Z,3.97
2018-02-04T06:44:45.106Z,4.40
2018-02-04T06:47:12.671Z,3.50
2018-02-04T06:49:40.257Z,6.13
2018-02-04T06:52:08.593Z,5.77
2018-02-04T06:54:36.178Z,5.27
2018-02-04T06:57:04.501Z,4.37
2018-02-04T06:59:32.081Z,4.47
2018-02-04T07:01:59.642Z,4.40
2018-02-04T07:04:27.231Z,4.30
2018-02-04T07:06:54.797Z,4.40
2018-02-04T07:09:22.404Z,5.03
2018-02-04T07:11:49.956Z,4.10
2018-02-04T07:14:17.553Z,5.23
2018-02-04T07:16:45.126Z,5.03
2018-02-04T07:19:12.684Z,5.50
2018-02-04T07:21:40.278Z,9.37
2018-02-04T07:24:07.854Z,4.60
2018-02-04T07:26:35.432Z,4.20
2018-02-04T07:29:02.996Z,5.37
2018-02-04T07:31:30.588Z,7.20
2018-02-04T07:33:58.151Z,6.13
2018-02-04T07:36:26.507Z,6.80
2018-02-04T07:38:54.093Z,7.20
2018-02-04T07:41:22.479Z,6.40
2018-02-04T07:43:50.057Z,6.30
2018-02-04T07:46:17.640Z,16.67
2018-02-04T07:48:45.200Z,8.47
2018-02-04T07:51:12.792Z,4.50
2018-02-04T07:53:40.357Z,4.90
2018-02-04T07:56:07.976Z,4.90
2018-02-04T07:58:35.544Z,6.40
2018-02-04T08:01:03.225Z,5.43
2018-02-04T08:03:30.797Z,8.97
2018-02-04T08:05:59.140Z,7.87
2018-02-04T08:08:26.700Z,6.77
2018-02-04T08:10:54.287Z,9.30
2018-02-04T08:13:22.619Z,6.60
2018-02-04T08:15:51.033Z,6.33
2018-02-04T08:18:18.618Z,7.37
2018-02-04T08:20:46.210Z,6.30
2018-02-04T08:23:13.772Z,6.77
2018-02-04T08:25:41.361Z,5.87
2018-02-04T08:28:08.917Z,5.60
2018-02-04T08:30:36.482Z,6.33
2018-02-04T08:33:04.101Z,7.30
2018-02-04T08:35:31.673Z,11.10
2018-02-04T08:37:59.269Z,13.97
2018-02-04T08:40:26.845Z,11.33
2018-02-04T08:42:55.195Z,10.37
2018-02-04T08:45:22.759Z,9.20
2018-02-04T08:47:50.342Z,4.80
2018-02-04T08:50:17.899Z,6.20
2018-02-04T08:52:46.240Z,5.83
2018-02-04T08:55:13.855Z,8.00
2018-02-04T08:57:41.413Z,5.80
2018-02-04T09:00:08.976Z,5.27
2018-02-04T09:02:36.552Z,6.13
2018-02-04T09:05:04.108Z,5.33
2018-02-04T09:07:31.693Z,6.20
2018-02-04T09:09:59.250Z,5.87
2018-02-04T09:12:26.835Z,6.30
2018-02-04T09:14:55.736Z,6.00
2018-02-04T09:17:23.311Z,5.60
2018-02-04T09:19:50.876Z,5.80
2018-02-04T09:22:18.464Z,6.87
2018-02-04T09:24:46.029Z,5.80
2018-02-04T09:27:13.621Z,5.73
2018-02-04T09:29:41.184Z,6.43
2018-02-04T09:32:09.547Z,6.30
2018-02-04T09:34:37.104Z,5.60
2018-02-04T09:37:04.660Z,6.70
2018-02-04T09:39:32.242Z,6.93
2018-02-04T09:42:00.569Z,6.47
2018-02-04T09:44:28.152Z,6.50
2018-02-04T09:46:55.711Z,6.70
2018-02-04T09:49:23.284Z,6.03
2018-02-04T09:51:50.836Z,6.10
2018-02-04T09:54:18.420Z,7.10
2018-02-04T09:56:45.988Z,5.73
2018-02-04T09:59:13.592Z,6.30
2018-02-04T10:01:41.156Z,7.17
2018-02-04T10:04:08.747Z,6.70
2018-02-04T10:06:37.072Z,6.40
2018-02-04T10:09:04.648Z,5.90
2018-02-04T10:11:32.209Z,6.17
2018-02-04T10:13:59.812Z,6.83
2018-02-04T10:16:27.377Z,6.47
2018-02-04T10:18:54.964Z,6.20
2018-02-04T10:21:22.719Z,6.97
2018-02-04T10:23:50.483Z,7.33
2018-02-04T10:26:18.041Z,6.07
2018-02-04T10:28:45.620Z,8.10
2018-02-04T10:31:13.184Z,6.57
2018-02-04T10:33:40.772Z,6.50
2018-02-04T10:36:08.334Z,6.50
2018-02-04T10:38:36.685Z,7.10
2018-02-04T10:41:04.246Z,6.77
2018-02-04T10:43:31.837Z,6.10
2018-02-04T10:45:59.392Z,6.60
2018-02-04T10:48:27.748Z,6.67
2018-02-04T10:51:16.189Z,6.40
2018-02-04T10:53:43.778Z,6.83
2018-02-04T10:56:12.109Z,7.40
2018-02-04T10:58:39.700Z,6.87
2018-02-04T11:01:07.265Z,6.90
2018-02-04T11:03:34.848Z,6.90
2018-02-04T11:06:02.414Z,7.30
2018-02-04T11:08:29.977Z,7.00
2018-02-04T11:10:57.570Z,7.20
2018-02-04T11:13:25.136Z,6.63
2018-02-04T11:15:52.729Z,7.33
2018-02-04T11:18:21.065Z,6.40
2018-02-04T11:20:48.657Z,6.93
2018-02-04T11:23:16.980Z,8.50
2018-02-04T11:25:44.560Z,7.20
2018-02-04T11:28:12.125Z,7.50
2018-02-04T11:30:39.724Z,8.20
2018-02-04T11:33:08.058Z,9.10
2018-02-04T11:35:35.655Z,11.30
2018-02-04T11:38:03.232Z,10.10
2018-02-04T11:40:30.812Z,9.20
2018-02-04T11:42:58.373Z,8.90
2018-02-04T11:45:25.960Z,10.67
2018-02-04T11:47:53.529Z,8.70
2018-02-04T11:50:21.116Z,3.87
2018-02-04T11:52:49.447Z,3.83
2018-02-04T11:55:17.038Z,4.10
2018-02-04T11:57:45.366Z,2.37
2018-02-04T12:00:12.943Z,3.10
2018-02-04T12:02:40.508Z,1.87
2018-02-04T12:05:08.098Z,1.70
2018-02-04T12:07:36.780Z,2.57
2018-02-04T12:10:05.138Z,3.20
2018-02-04T12:12:32.709Z,2.57
2018-02-04T12:15:00.295Z,3.77
2018-02-04T12:17:27.852Z,4.77
2018-02-04T12:19:55.444Z,2.73
2018-02-04T12:22:23.016Z,3.30
2018-02-04T12:24:50.577Z,4.20
2018-02-04T12:27:18.207Z,4.43
2018-02-04T12:29:45.768Z,3.83
2018-02-04T12:32:13.342Z,4.50
2018-02-04T12:34:40.897Z,3.80
2018-02-04T12:37:08.494Z,5.63
2018-02-04T12:39:36.058Z,5.40
2018-02-04T12:42:03.650Z,4.80
2018-02-04T12:44:31.208Z,4.50
2018-02-04T12:46:58.792Z,4.63
2018-02-04T12:49:26.353Z,4.43
2018-02-04T12:51:53.941Z,5.43
2018-02-04T12:54:21.501Z,6.40
2018-02-04T12:56:49.082Z,8.03
2018-02-04T12:59:17.577Z,7.03
2018-02-04T13:01:45.416Z,6.57
2018-02-04T13:04:13.736Z,5.70
2018-02-04T13:06:41.330Z,6.00
2018-02-04T13:09:08.884Z,5.00
2018-02-04T13:11:36.471Z,6.40
2018-02-04T13:14:04.804Z,8.80
2018-02-04T13:16:32.384Z,6.23
2018-02-04T13:18:59.955Z,8.97
2018-02-04T13:21:27.532Z,8.83
2018-02-04T13:23:55.853Z,8.37
2018-02-04T13:26:23.442Z,8.43
2018-02-04T13:28:51.037Z,11.80
2018-02-04T13:31:18.605Z,14.30
2018-02-04T13:33:46.196Z,15.40
2018-02-04T13:36:13.761Z,11.40
2018-02-04T13:38:41.349Z,16.43
2018-02-04T13:41:08.912Z,19.70
2018-02-04T13:43:36.506Z,19.20
2018-02-04T13:46:04.072Z,16.40
2018-02-04T13:48:31.656Z,24.27
2018-02-04T13:50:59.228Z,10.37
2018-02-04T13:53:26.849Z,10.57
2018-02-04T13:55:54.409Z,8.97
2018-02-04T13:58:21.989Z,8.70
2018-02-04T14:00:50.470Z,9.43
2018-02-04T14:03:18.053Z,9.60
2018-02-04T14:05:45.667Z,8.57
2018-02-04T14:08:13.237Z,8.27
2018-02-04T14:10:40.808Z,9.10
2018-02-04T14:13:08.391Z,8.13
2018-02-04T14:15:35.948Z,8.90
2018-02-04T14:18:03.536Z,10.13
2018-02-04T14:20:31.105Z,9.37
2018-02-04T14:22:58.693Z,9.80
2018-02-04T14:25:26.262Z,9.70
2018-02-04T14:27:53.844Z,7.97
2018-02-04T14:30:21.432Z,9.50
2018-02-04T14:32:49.829Z,9.20
2018-02-04T14:35:17.387Z,9.10
2018-02-04T14:37:44.978Z,9.20
2018-02-04T14:40:13.324Z,9.80
2018-02-04T14:42:40.933Z,28.30
2018-02-04T14:45:08.496Z,11.23
2018-02-04T14:47:36.084Z,9.40
2018-02-04T14:50:04.450Z,9.73
2018-02-04T14:52:31.996Z,9.90
2018-02-04T14:54:59.592Z,10.30
2018-02-04T14:57:27.156Z,9.63
2018-02-04T14:59:54.732Z,9.10
2018-02-04T15:02:22.288Z,8.83
2018-02-04T15:04:49.868Z,8.97
2018-02-04T15:07:17.426Z,9.70
2018-02-04T15:09:45.015Z,8.97
2018-02-04T15:12:12.575Z,9.00
2018-02-04T15:14:40.929Z,9.20
2018-02-04T15:17:08.492Z,8.17
2018-02-04T15:19:36.072Z,7.80
2018-02-04T15:22:03.637Z,9.07
2018-02-04T15:24:31.989Z,8.37
2018-02-04T15:26:59.548Z,8.60
2018-02-04T15:29:27.179Z,8.10
2018-02-04T15:31:54.725Z,7.77
2018-02-04T15:34:22.318Z,10.10
2018-02-04T15:36:50.713Z,8.57
2018-02-04T15:39:18.309Z,8.30
2018-02-04T15:41:45.881Z,9.87
2018-02-04T15:44:13.473Z,6.97
2018-02-04T15:46:41.069Z,10.00
2018-02-04T15:49:09.429Z,10.33
2018-02-04T15:51:37.001Z,10.23
2018-02-04T15:54:04.640Z,9.20
2018-02-04T15:56:32.264Z,9.67
2018-02-04T15:58:59.848Z,8.00
2018-02-04T16:01:27.417Z,8.50
2018-02-04T16:03:55.005Z,35.30
2018-02-04T16:06:23.336Z,13.47
2018-02-04T16:08:50.938Z,14.67
2018-02-04T16:11:18.502Z,11.50
2018-02-04T16:13:46.082Z,12.47
2018-02-04T16:16:13.715Z,10.10
2018-02-04T16:18:41.285Z,10.37
2018-02-04T16:21:08.868Z,12.37
2018-02-04T16:23:36.433Z,10.57
2018-02-04T16:26:04.012Z,11.00
2018-02-04T16:28:31.572Z,10.20
2018-02-04T16:30:59.161Z,10.47
2018-02-04T16:33:27.488Z,13.00
2018-02-04T16:35:55.070Z,9.53
2018-02-04T16:38:22.672Z,11.53
2018-02-04T16:40:50.452Z,12.40
2018-02-04T16:43:18.018Z,11.00
2018-02-04T16:45:45.610Z,11.20
2018-02-04T16:48:13.185Z,10.27
2018-02-04T16:50:41.578Z,11.93
2018-02-04T16:53:09.907Z,10.23
2018-02-04T16:55:37.497Z,11.37
2018-02-04T16:58:05.092Z,10.00
2018-02-04T17:00:32.673Z,9.47
2018-02-04T17:03:00.238Z,8.80
2018-02-04T17:05:27.820Z,8.77
2018-02-04T17:07:55.418Z,9.20
2018-02-04T17:10:23.009Z,9.23
2018-02-04T17:12:50.623Z,11.03
2018-02-04T17:15:18.200Z,9.93
2018-02-04T17:17:46.524Z,11.07
2018-02-04T17:20:15.062Z,10.03
2018-02-04T17:22:42.624Z,9.10
2018-02-04T17:25:10.218Z,9.73
2018-02-04T17:27:37.816Z,10.70
2018-02-04T17:30:05.431Z,8.43
2018-02-04T17:32:33.008Z,9.00
2018-02-04T17:35:00.581Z,14.97
2018-02-04T17:37:28.210Z,13.47
2018-02-04T17:39:55.777Z,11.03
2018-02-04T17:42:23.410Z,13.13
2018-02-04T17:44:51.014Z,14.83
2018-02-04T17:47:18.596Z,10.03
2018-02-04T17:49:46.962Z,10.37
2018-02-04T17:52:14.541Z,10.43
2018-02-04T17:54:42.173Z,10.47
2018-02-04T17:57:09.732Z,12.90
2018-02-04T17:59:37.307Z,13.50
2018-02-04T18:02:04.888Z,12.87
2018-02-04T18:04:32.499Z,13.43
2018-02-04T18:07:00.312Z,9.70
2018-02-04T18:09:27.874Z,11.80
2018-02-04T18:11:55.470Z,11.10
2018-02-04T18:14:23.833Z,10.03
2018-02-04T18:16:51.430Z,11.50
2018-02-04T18:19:19.001Z,16.13
2018-02-04T18:21:47.364Z,12.43
2018-02-04T18:24:14.929Z,11.70
2018-02-04T18:26:42.526Z,12.80
2018-02-04T18:29:10.352Z,13.07
2018-02-04T18:31:38.043Z,13.23
2018-02-04T18:34:05.834Z,12.30
2018-02-04T18:36:33.457Z,12.47
2018-02-04T18:39:01.915Z,12.40
2018-02-04T18:41:29.489Z,12.90
2018-02-04T18:43:59.205Z,13.03
2018-02-04T18:46:26.811Z,14.47
2018-02-04T18:48:54.446Z,13.17
2018-02-04T18:51:22.584Z,14.47
2018-02-04T18:53:50.292Z,13.80
2018-02-04T18:56:17.956Z,14.40
2018-02-04T18:58:45.566Z,14.50
2018-02-04T19:01:13.137Z,13.20
2018-02-04T19:03:40.745Z,15.20
2018-02-04T19:06:08.323Z,14.10
2018-02-04T19:08:36.057Z,12.93
2018-02-04T19:11:03.624Z,13.70
2018-02-04T19:13:31.208Z,14.53
2018-02-04T19:15:58.876Z,13.80
2018-02-04T19:18:26.447Z,12.40
2018-02-04T19:20:54.009Z,12.20
2018-02-04T19:23:21.593Z,13.30
2018-02-04T19:25:50.519Z,13.83
2018-02-04T19:28:18.933Z,11.03
2018-02-04T19:30:46.552Z,11.37
2018-02-04T19:33:14.136Z,11.67
2018-02-04T19:35:41.726Z,13.20
2018-02-04T19:38:09.378Z,11.23
2018-02-04T19:40:36.990Z,11.73
2018-02-04T19:43:04.604Z,11.53
2018-02-04T19:45:32.184Z,9.73
2018-02-04T19:47:59.801Z,12.00
2018-02-04T19:50:27.733Z,10.60
2018-02-04T19:52:56.017Z,12.00
2018-02-04T19:55:23.650Z,41.50
2018-02-04T19:57:51.973Z,26.20
2018-02-04T20:00:19.570Z,16.57
2018-02-04T20:02:47.896Z,14.77
2018-02-04T20:05:16.246Z,11.63
2018-02-04T20:07:43.823Z,12.70
2018-02-04T20:10:11.405Z,13.60
2018-02-04T20:12:39.023Z,11.03
2018-02-04T20:15:06.609Z,11.00
2018-02-04T20:17:34.225Z,9.70
2018-02-04T20:20:01.866Z,11.63
2018-02-04T20:22:29.445Z,11.97
2018-02-04T20:24:57.096Z,12.07
2018-02-04T20:27:24.702Z,10.53
2018-02-04T20:29:52.285Z,9.80
2018-02-04T20:32:31.566Z,11.73
2018-02-04T20:34:59.153Z,10.80
2018-02-04T20:37:26.755Z,9.60
2018-02-04T20:39:54.406Z,11.37
2018-02-04T20:42:21.974Z,10.77
2018-02-04T20:44:49.569Z,10.23
2018-02-04T20:47:17.191Z,10.90
2018-02-04T20:49:44.836Z,10.03
2018-02-04T20:52:12.457Z,10.73
2018-02-04T20:54:40.096Z,11.03
2018-02-04T20:57:07.657Z,10.47
2018-02-04T20:59:35.313Z,10.63
2018-02-04T21:02:02.881Z,12.00
2018-02-04T21:04:30.495Z,10.90
2018-02-04T21:06:58.123Z,10.23
2018-02-04T21:09:25.746Z,10.50
2018-02-04T21:11:54.103Z,11.70
2018-02-04T21:14:21.672Z,10.67
2018-02-04T21:16:49.257Z,12.30
2018-02-04T21:19:16.861Z,11.27
2018-02-04T21:21:44.507Z,11.50
2018-02-04T21:24:12.068Z,11.70
2018-02-04T21:26:39.708Z,12.40
2018-02-04T21:29:07.310Z,10.57
2018-02-04T21:31:34.943Z,11.60
2018-02-04T21:34:02.514Z,11.40
2018-02-04T21:36:30.157Z,12.40
2018-02-04T21:38:57.767Z,12.77
2018-02-04T21:41:25.362Z,11.23
2018-02-04T21:43:52.972Z,10.73
2018-02-04T21:46:20.564Z,11.10
2018-02-04T21:48:48.943Z,11.10
2018-02-04T21:51:17.304Z,10.50
2018-02-04T21:53:45.669Z,11.70
2018-02-04T21:56:13.308Z,11.87
2018-02-04T21:58:41.799Z,13.37
2018-02-04T22:01:09.392Z,10.70
2018-02-04T22:03:36.998Z,12.53
2018-02-04T22:06:04.669Z,11.27
2018-02-04T22:08:33.000Z,11.10
2018-02-04T22:11:00.592Z,10.83
2018-02-04T22:13:28.151Z,11.03
2018-02-04T22:15:55.732Z,13.27
2018-02-04T22:18:23.306Z,12.40
2018-02-04T22:20:50.911Z,10.13
2018-02-04T22:23:18.473Z,9.97
2018-02-04T22:25:46.040Z,10.67
2018-02-04T22:28:13.629Z,10.57
2018-02-04T22:30:42.701Z,11.00
2018-02-04T22:33:10.288Z,11.50
2018-02-04T22:35:37.861Z,13.50
2018-02-04T22:38:05.464Z,12.53
2018-02-04T22:40:33.035Z,11.43
2018-02-04T22:43:00.637Z,11.60
2018-02-04T22:45:28.977Z,11.40
2018-02-04T22:47:56.568Z,13.77
2018-02-04T22:50:24.157Z,11.40
2018-02-04T22:52:51.749Z,11.50
2018-02-04T22:55:19.317Z,13.23
2018-02-04T22:57:46.901Z,11.63
2018-02-04T23:00:14.460Z,11.50
2018-02-04T23:02:42.085Z,12.13
2018-02-04T23:05:09.649Z,11.47
2018-02-04T23:07:37.240Z,11.17
2018-02-04T23:10:04.851Z,11.53
2018-02-04T23:12:32.436Z,10.73
2018-02-04T23:14:59.998Z,9.93
2018-02-04T23:17:27.597Z,10.20
2018-02-04T23:19:55.166Z,12.60
2018-02-04T23:22:22.752Z,10.60
2018-02-04T23:24:50.313Z,9.17
2018-02-04T23:27:17.904Z,9.90
2018-02-04T23:29:45.468Z,10.80
2018-02-04T23:32:13.058Z,10.10
2018-02-04T23:34:41.380Z,8.80
2018-02-04T23:37:08.972Z,13.20
2018-02-04T23:39:36.546Z,10.07
2018-02-04T23:42:04.140Z,9.03
2018-02-04T23:44:31.696Z,9.00
2018-02-04T23:46:59.251Z,8.83
2018-02-04T23:49:26.833Z,8.37
2018-02-04T23:51:54.402Z,8.80
2018-02-04T23:54:21.991Z,8.37
2018-02-04T23:56:49.559Z,7.23
2018-02-04T23:59:17.922Z,14.77
